Time;durP1;ratioP1;P1;durP2;ratioP2;P2;SDS_P1;SDS_P2;PMS_P1;PMS_P2;Temp;Humidity;BMP_temperature;BMP_pressure;BME280_temperature;BME280_humidity;BME280_pressure;Samples;Min_cycle;Max_cycle;Signal;HPM_P1;HPM_P2
2022/11/08 00:03:28;;;;;;;2.80;1.80;;;9.70;99.90;;;;;;5075435;28;20443;-81
2022/11/08 00:14:06;;;;;;;3.30;1.60;;;9.80;99.90;;;;;;5075455;28;20402;-80
2022/11/08 00:16:32;;;;;;;3.33;1.50;;;9.80;99.90;;;;;;5072060;28;20425;-80
2022/11/08 00:18:57;;;;;;;3.13;1.80;;;9.80;99.90;;;;;;5038951;28;20226;-80
2022/11/08 00:21:23;;;;;;;4.73;1.83;;;9.80;99.90;;;;;;5090444;28;20562;-80
2022/11/08 00:23:48;;;;;;;5.93;2.00;;;9.90;99.90;;;;;;5090487;28;20184;-81
2022/11/08 00:26:14;;;;;;;3.63;1.60;;;10.20;99.90;;;;;;5055173;28;20188;-80
2022/11/08 00:28:40;;;;;;;4.00;1.60;;;10.00;99.90;;;;;;5055069;28;20215;-80
2022/11/08 00:31:05;;;;;;;2.67;1.50;;;10.30;99.90;;;;;;5056347;28;20612;-80
2022/11/08 00:33:31;;;;;;;5.13;1.60;;;10.20;99.90;;;;;;5055120;28;20191;-81
2022/11/08 00:36:01;;;;;;;5.10;1.80;;;10.20;99.90;;;;;;5071732;28;20177;-80
2022/11/08 00:38:27;;;;;;;4.23;2.00;;;10.30;99.90;;;;;;5071464;28;20238;-81
2022/11/08 00:40:52;;;;;;;2.10;1.87;;;10.50;99.90;;;;;;5090002;28;20417;-81
2022/11/08 00:43:18;;;;;;;2.07;1.40;;;10.50;99.90;;;;;;5054758;28;20433;-81
2022/11/08 00:45:44;;;;;;;1.90;1.73;;;10.40;99.90;;;;;;5038212;28;20233;-83
2022/11/08 00:48:09;;;;;;;3.53;1.57;;;10.40;99.90;;;;;;5071298;28;20210;-81
2022/11/08 00:50:39;;;;;;;6.10;1.80;;;10.40;99.90;;;;;;5071345;28;20222;-81
2022/11/08 00:53:05;;;;;;;3.97;1.70;;;10.40;99.90;;;;;;5054781;28;20710;-81
2022/11/08 00:55:35;;;;;;;4.77;1.57;;;10.30;99.90;;;;;;5071104;28;20426;-81
2022/11/08 00:58:01;;;;;;;5.10;1.40;;;10.30;99.90;;;;;;5072345;28;20781;-81
2022/11/08 01:00:27;;;;;;;3.93;1.87;;;10.40;99.90;;;;;;5054946;28;20426;-82
2022/11/08 01:03:17;;;;;;;2.57;1.13;;;10.50;99.90;;;;;;5071129;28;20690;-81
2022/11/08 01:05:38;;;;;;;2.47;1.73;;;10.30;99.90;;;;;;5074273;28;20491;-82
2022/11/08 01:08:04;;;;;;;3.90;1.40;;;10.20;99.90;;;;;;5054444;28;20442;-81
2022/11/08 01:10:29;;;;;;;1.70;1.47;;;10.30;99.90;;;;;;5071070;28;20213;-81
2022/11/08 01:12:55;;;;;;;3.63;1.50;;;10.10;99.90;;;;;;5054039;28;20183;-81
2022/11/08 01:15:20;;;;;;;6.87;1.20;;;10.20;99.90;;;;;;5054271;28;20674;-81
2022/11/08 01:17:46;;;;;;;2.40;1.50;;;10.20;99.90;;;;;;5037735;28;20288;-81
2022/11/08 01:20:12;;;;;;;1.63;1.00;;;10.00;99.90;;;;;;5054062;28;20199;-81
2022/11/08 01:22:37;;;;;;;5.13;1.77;;;10.10;99.90;;;;;;5054235;28;20218;-82
2022/11/08 01:25:06;;;;;;;2.47;1.47;;;10.10;99.90;;;;;;5055059;28;20650;-84
2022/11/08 01:27:32;;;;;;;4.13;1.30;;;10.20;99.90;;;;;;5077293;28;20202;-83
2022/11/08 01:29:57;;;;;;;1.40;1.20;;;10.30;99.90;;;;;;5059045;28;20469;-84
2022/11/08 01:32:23;;;;;;;1.93;1.43;;;10.40;99.90;;;;;;5094420;28;20806;-84
2022/11/08 01:34:49;;;;;;;5.53;1.20;;;10.30;99.90;;;;;;5077253;28;20193;-84
2022/11/08 01:37:14;;;;;;;3.00;1.00;;;10.20;99.90;;;;;;5059737;28;20191;-84
2022/11/08 01:39:40;;;;;;;4.10;1.70;;;10.50;99.90;;;;;;5042763;28;20203;-81
2022/11/08 01:42:05;;;;;;;2.57;1.67;;;10.40;99.90;;;;;;5095158;28;20185;-82
2022/11/08 01:44:31;;;;;;;7.17;1.80;;;10.20;99.90;;;;;;5077269;28;20185;-82
2022/11/08 01:46:57;;;;;;;2.13;1.43;;;10.40;99.90;;;;;;5077066;28;20694;-81
2022/11/08 01:49:35;;;;;;;1.97;1.10;;;10.40;99.90;;;;;;5074560;28;20759;-81
2022/11/08 01:52:06;;;;;;;3.10;1.80;;;10.50;99.90;;;;;;5092333;28;20181;-82
2022/11/08 01:54:50;;;;;;;2.97;1.40;;;10.40;99.90;;;;;;5074411;28;20420;-82
2022/11/08 01:57:22;;;;;;;1.80;1.47;;;10.40;99.90;;;;;;5060264;28;20424;-82
2022/11/08 01:59:49;;;;;;;4.87;1.80;;;10.50;99.90;;;;;;5075021;28;20450;-84
2022/11/08 02:02:16;;;;;;;4.43;1.60;;;10.40;99.90;;;;;;5073709;28;20453;-83
2022/11/08 02:04:42;;;;;;;3.60;1.40;;;10.30;99.90;;;;;;5072201;28;20433;-81
2022/11/08 02:07:11;;;;;;;3.10;2.07;;;10.30;99.90;;;;;;5072664;28;20423;-79
2022/11/08 02:09:38;;;;;;;3.77;1.30;;;10.40;99.90;;;;;;5054557;28;20502;-80
2022/11/08 02:12:06;;;;;;;4.30;1.43;;;10.30;99.90;;;;;;5089359;28;20466;-80
2022/11/08 02:14:32;;;;;;;3.37;1.63;;;10.20;99.90;;;;;;5054486;28;20514;-79
2022/11/08 02:16:58;;;;;;;4.17;1.70;;;10.20;99.90;;;;;;5054498;28;20441;-80
2022/11/08 02:19:44;;;;;;;1.83;1.50;;;10.10;99.90;;;;;;5071033;28;20236;-80
2022/11/08 02:22:32;;;;;;;2.27;1.40;;;10.00;99.90;;;;;;5054178;28;20813;-79
2022/11/08 02:24:57;;;;;;;2.40;1.37;;;10.20;99.90;;;;;;5055973;28;20571;-82
2022/11/08 02:27:24;;;;;;;3.57;1.40;;;10.10;99.90;;;;;;5042052;28;20535;-81
2022/11/08 02:29:52;;;;;;;2.43;1.60;;;10.30;99.90;;;;;;5075071;28;20211;-81
2022/11/08 02:32:18;;;;;;;2.50;1.47;;;10.30;99.90;;;;;;5075617;28;20471;-81
2022/11/08 02:34:47;;;;;;;2.00;1.00;;;10.30;99.90;;;;;;5093614;28;20890;-80
2022/11/08 02:37:15;;;;;;;1.67;1.10;;;10.20;99.90;;;;;;5060406;28;20190;-81
2022/11/08 02:39:41;;;;;;;2.60;1.10;;;10.30;99.90;;;;;;5077793;28;20825;-81
2022/11/08 02:42:13;;;;;;;1.40;1.20;;;10.30;99.90;;;;;;5060907;28;20426;-81
2022/11/08 02:44:38;;;;;;;3.13;1.27;;;10.40;99.90;;;;;;5077192;28;20505;-83
2022/11/08 02:47:04;;;;;;;2.80;1.30;;;10.40;99.90;;;;;;5076801;28;20586;-83
2022/11/08 02:49:30;;;;;;;2.67;1.20;;;10.50;99.90;;;;;;5059595;28;20221;-81
2022/11/08 02:51:55;;;;;;;7.17;1.53;;;10.40;99.90;;;;;;5060439;28;20189;-83
2022/11/08 02:54:21;;;;;;;1.37;1.27;;;10.40;99.90;;;;;;5096571;28;20609;-83
2022/11/08 02:56:47;;;;;;;1.77;1.00;;;10.30;99.90;;;;;;5078667;28;20224;-82
2022/11/08 02:59:12;;;;;;;1.30;1.20;;;10.30;99.90;;;;;;5096133;28;20276;-83
2022/11/08 03:01:38;;;;;;;2.30;1.50;;;10.10;99.90;;;;;;5043118;28;20202;-80
2022/11/08 03:04:04;;;;;;;5.77;1.37;;;10.40;99.90;;;;;;5093170;28;20186;-79
2022/11/08 03:06:29;;;;;;;2.10;1.53;;;10.30;99.90;;;;;;5092838;28;20268;-82
2022/11/08 03:08:55;;;;;;;1.77;1.27;;;10.30;99.90;;;;;;5040980;28;20248;-84
2022/11/08 03:11:20;;;;;;;2.40;1.20;;;10.20;99.90;;;;;;5058579;28;20324;-83
2022/11/08 03:13:46;;;;;;;2.47;1.13;;;10.20;99.90;;;;;;5059162;28;20189;-82
2022/11/08 03:16:11;;;;;;;1.50;1.23;;;10.10;99.90;;;;;;5059459;28;20183;-82
2022/11/08 03:18:37;;;;;;;1.83;1.10;;;10.10;99.90;;;;;;5076596;28;20210;-83
2022/11/08 03:21:03;;;;;;;1.47;0.80;;;10.00;99.90;;;;;;5076452;28;20192;-86
2022/11/08 03:23:28;;;;;;;1.73;1.37;;;10.10;99.90;;;;;;5057699;28;20186;-80
2022/11/08 03:25:54;;;;;;;1.53;0.90;;;10.30;99.90;;;;;;5073736;28;20274;-82
2022/11/08 03:28:20;;;;;;;1.57;1.30;;;10.30;99.90;;;;;;5073489;28;20216;-82
2022/11/08 03:30:49;;;;;;;1.93;1.20;;;10.40;99.90;;;;;;5073602;28;20464;-83
2022/11/08 03:33:14;;;;;;;2.63;1.20;;;10.40;99.90;;;;;;5073740;28;20258;-81
2022/11/08 03:35:41;;;;;;;1.90;0.83;;;10.30;99.90;;;;;;5056145;28;21006;-81
2022/11/08 03:38:07;;;;;;;1.20;0.90;;;10.40;99.90;;;;;;5057102;28;20285;-82
2022/11/08 03:40:32;;;;;;;3.30;1.33;;;10.40;99.90;;;;;;5056875;28;20429;-82
2022/11/08 03:42:58;;;;;;;4.20;1.10;;;10.60;99.90;;;;;;5073545;28;20199;-81
2022/11/08 03:45:23;;;;;;;5.00;0.80;;;10.60;99.90;;;;;;5057406;28;20214;-81
2022/11/08 03:47:49;;;;;;;1.20;0.83;;;10.40;99.90;;;;;;5074253;28;20271;-82
2022/11/08 03:50:15;;;;;;;3.00;1.30;;;10.50;99.90;;;;;;5040300;28;20222;-81
2022/11/08 03:52:43;;;;;;;1.93;1.20;;;10.40;99.90;;;;;;5074001;28;20358;-82
2022/11/08 03:55:09;;;;;;;1.47;0.80;;;10.40;99.90;;;;;;5057625;28;20430;-82
2022/11/08 03:57:36;;;;;;;3.23;1.47;;;10.50;99.90;;;;;;5074341;28;20521;-82
2022/11/08 04:00:03;;;;;;;1.70;0.80;;;10.40;99.90;;;;;;5074190;28;20424;-81
2022/11/08 04:02:28;;;;;;;6.30;0.90;;;10.50;99.90;;;;;;5057105;28;20456;-81
2022/11/08 04:04:54;;;;;;;1.30;1.20;;;10.50;99.90;;;;;;5057261;28;20467;-82
2022/11/08 04:07:20;;;;;;;1.10;0.70;;;10.60;99.90;;;;;;5040747;28;20680;-82
2022/11/08 04:09:45;;;;;;;1.57;1.00;;;10.50;99.90;;;;;;5073514;28;20598;-81
2022/11/08 04:23:07;;;;;;;1.23;0.93;;;10.60;99.90;;;;;;5075344;28;20403;-81
2022/11/08 04:25:33;;;;;;;7.03;0.90;;;10.70;99.90;;;;;;5038988;28;20434;-79
2022/11/08 04:27:59;;;;;;;0.93;0.83;;;10.60;99.90;;;;;;5056020;28;20206;-81
2022/11/08 04:30:24;;;;;;;2.30;1.30;;;10.60;99.90;;;;;;5039230;28;20215;-81
2022/11/08 04:32:50;;;;;;;1.93;0.80;;;10.60;99.90;;;;;;5038984;28;20194;-82
2022/11/08 04:35:15;;;;;;;1.30;0.80;;;10.60;99.90;;;;;;5038833;28;20193;-80
2022/11/08 04:37:41;;;;;;;2.50;1.07;;;10.60;99.90;;;;;;5038816;28;20210;-81
2022/11/08 04:40:08;;;;;;;8.13;0.97;;;10.70;99.90;;;;;;5055400;28;20275;-81
2022/11/08 04:42:33;;;;;;;1.97;1.00;;;10.80;99.90;;;;;;5055787;28;20201;-81
2022/11/08 04:44:59;;;;;;;2.60;1.00;;;10.80;99.90;;;;;;5055440;28;20878;-82
2022/11/08 04:47:26;;;;;;;3.50;1.10;;;10.80;99.90;;;;;;5055858;28;20193;-82
2022/11/08 04:49:53;;;;;;;0.90;0.70;;;10.70;99.90;;;;;;5090624;28;20251;-82
2022/11/08 04:52:18;;;;;;;3.03;0.73;;;10.80;99.90;;;;;;5040277;28;20494;-78
2022/11/08 04:54:45;;;;;;;1.07;0.90;;;10.90;99.90;;;;;;5073269;28;20424;-78
2022/11/08 04:57:11;;;;;;;4.10;0.93;;;11.00;99.90;;;;;;5091240;28;20555;-79
2022/11/08 04:59:38;;;;;;;2.07;1.07;;;11.10;99.90;;;;;;5090766;28;20426;-80
2022/11/08 05:02:04;;;;;;;0.90;0.70;;;10.90;99.90;;;;;;5090688;28;20456;-80
2022/11/08 05:04:29;;;;;;;1.73;1.00;;;10.80;99.90;;;;;;5090324;28;20505;-81
2022/11/08 05:06:55;;;;;;;2.30;0.97;;;10.70;99.90;;;;;;5055321;28;20533;-81
2022/11/08 05:09:21;;;;;;;1.00;0.60;;;10.90;99.90;;;;;;5054997;28;20258;-81
2022/11/08 05:11:46;;;;;;;1.43;0.80;;;11.00;99.90;;;;;;5071662;28;20610;-80
2022/11/08 05:14:12;;;;;;;2.40;1.10;;;10.80;99.90;;;;;;5038425;28;20185;-80
2022/11/08 05:16:37;;;;;;;1.33;0.97;;;10.90;99.90;;;;;;5041717;28;20235;-80
2022/11/08 05:19:03;;;;;;;0.97;0.87;;;10.80;99.90;;;;;;5058678;28;20210;-81
2022/11/08 05:24:16;;;;;;;2.17;0.70;;;10.80;99.90;;;;;;5077752;28;20628;-80
2022/11/08 05:26:44;;;;;;;1.60;0.93;;;10.70;99.90;;;;;;5075078;28;20425;-81
2022/11/08 05:29:11;;;;;;;1.10;1.00;;;10.80;99.90;;;;;;5092285;28;20474;-81
2022/11/08 05:31:38;;;;;;;1.43;0.70;;;10.70;99.90;;;;;;5094835;28;21163;-81
2022/11/08 05:34:04;;;;;;;1.30;0.70;;;10.60;99.90;;;;;;5093009;28;20477;-80
2022/11/08 05:36:29;;;;;;;3.50;0.90;;;10.70;99.90;;;;;;5074649;28;20486;-81
2022/11/08 05:38:55;;;;;;;2.20;0.93;;;10.70;99.90;;;;;;5074474;28;20225;-81
2022/11/08 05:41:22;;;;;;;2.17;0.97;;;10.80;99.90;;;;;;5041164;28;20194;-81
2022/11/08 05:43:50;;;;;;;1.47;0.97;;;10.70;99.90;;;;;;5092791;28;20255;-81
2022/11/08 05:46:17;;;;;;;1.57;0.90;;;10.70;99.90;;;;;;5074598;28;20436;-80
2022/11/08 05:48:45;;;;;;;1.97;0.83;;;10.70;99.90;;;;;;5073160;28;20444;-80
2022/11/08 05:51:12;;;;;;;1.57;0.87;;;10.60;99.90;;;;;;5091292;28;20413;-80
2022/11/08 05:53:39;;;;;;;1.07;0.77;;;10.80;99.90;;;;;;5090576;28;20436;-80
2022/11/08 05:56:05;;;;;;;4.30;1.53;;;10.60;99.90;;;;;;5057204;28;20431;-80
2022/11/08 05:58:32;;;;;;;1.90;0.90;;;10.60;99.90;;;;;;5073537;28;20463;-80
2022/11/08 06:01:03;;;;;;;2.70;0.80;;;10.70;99.90;;;;;;5073504;28;20419;-81
2022/11/08 06:03:29;;;;;;;2.37;0.80;;;10.70;99.90;;;;;;5073531;28;20426;-81
2022/11/08 06:05:55;;;;;;;1.37;0.90;;;10.70;99.90;;;;;;5056395;28;20427;-80
2022/11/08 06:08:21;;;;;;;1.63;0.70;;;10.80;99.90;;;;;;5073302;28;20434;-79
2022/11/08 06:10:46;;;;;;;1.00;0.77;;;10.70;99.90;;;;;;5055734;28;20700;-79
2022/11/08 06:13:12;;;;;;;1.00;0.90;;;10.80;99.90;;;;;;5071603;28;20413;-80
2022/11/08 06:15:38;;;;;;;1.23;0.60;;;10.80;99.90;;;;;;5054095;28;20295;-79
2022/11/08 06:18:04;;;;;;;5.33;0.87;;;10.80;99.90;;;;;;5071583;28;21002;-81
2022/11/08 06:20:30;;;;;;;1.47;0.80;;;10.80;99.90;;;;;;5090330;28;20186;-81
2022/11/08 06:22:56;;;;;;;0.80;0.80;;;10.90;99.90;;;;;;5072114;28;20435;-80
2022/11/08 06:25:22;;;;;;;2.37;0.80;;;10.90;99.90;;;;;;5073186;28;20189;-81
2022/11/08 06:27:47;;;;;;;4.50;0.80;;;10.80;99.90;;;;;;5089524;28;20451;-79
2022/11/08 06:30:13;;;;;;;0.80;0.60;;;10.90;99.70;;;;;;5072415;28;20476;-80
2022/11/08 06:32:39;;;;;;;1.30;0.80;;;11.00;99.40;;;;;;5073204;28;20195;-80
2022/11/08 06:35:05;;;;;;;0.90;0.60;;;11.00;99.40;;;;;;5056286;28;20431;-81
2022/11/08 06:37:31;;;;;;;1.10;0.87;;;10.90;99.80;;;;;;5071726;28;20207;-79
2022/11/08 06:39:57;;;;;;;1.70;0.70;;;10.90;99.60;;;;;;5040019;28;20418;-80
2022/11/08 06:42:24;;;;;;;5.27;0.80;;;10.90;99.90;;;;;;5091931;28;20217;-79
2022/11/08 06:44:49;;;;;;;3.33;0.87;;;10.90;99.50;;;;;;5071696;28;20946;-80
2022/11/08 06:47:15;;;;;;;0.80;0.70;;;11.00;99.80;;;;;;5054971;28;20417;-80
2022/11/08 06:49:40;;;;;;;1.83;1.00;;;10.90;99.70;;;;;;5071763;28;20208;-80
2022/11/08 06:52:06;;;;;;;1.93;0.80;;;10.90;99.50;;;;;;5054063;28;20183;-80
2022/11/08 06:54:32;;;;;;;1.83;0.80;;;10.90;99.80;;;;;;5070482;28;20253;-79
2022/11/08 06:57:00;;;;;;;1.47;0.83;;;11.00;99.50;;;;;;5053316;28;20177;-80
2022/11/08 06:59:26;;;;;;;2.13;1.00;;;11.00;99.20;;;;;;5088724;28;20200;-81
2022/11/08 07:01:52;;;;;;;1.73;0.80;;;11.10;98.90;;;;;;5072798;28;21068;-80
2022/11/08 07:04:18;;;;;;;0.80;0.60;;;11.20;98.50;;;;;;5092748;28;20181;-81
2022/11/08 07:06:44;;;;;;;1.40;0.77;;;11.30;98.20;;;;;;5090564;28;20526;-80
2022/11/08 07:09:09;;;;;;;2.13;0.80;;;11.40;98.40;;;;;;5090015;28;20281;-80
2022/11/08 07:11:35;;;;;;;0.90;0.50;;;11.40;98.10;;;;;;5041410;28;20180;-81
2022/11/08 07:14:01;;;;;;;1.90;0.80;;;11.50;97.60;;;;;;5077350;28;20174;-80
2022/11/08 07:16:26;;;;;;;1.00;0.60;;;11.60;97.60;;;;;;5043312;28;20180;-82
2022/11/08 07:18:54;;;;;;;1.27;0.70;;;11.60;97.80;;;;;;5061477;28;20202;-82
2022/11/08 07:21:20;;;;;;;1.13;1.03;;;11.70;97.40;;;;;;5098884;28;20195;-81
2022/11/08 07:23:47;;;;;;;0.97;0.67;;;11.70;97.80;;;;;;5098700;28;20423;-82
2022/11/08 07:26:13;;;;;;;0.90;0.53;;;11.80;96.80;;;;;;5048019;28;20454;-83
2022/11/08 07:28:39;;;;;;;3.10;0.90;;;11.80;96.70;;;;;;5098127;28;20804;-83
2022/11/08 07:31:05;;;;;;;1.00;0.60;;;11.90;96.80;;;;;;5098513;28;20496;-82
2022/11/08 07:33:31;;;;;;;1.10;0.60;;;11.80;96.40;;;;;;5080492;28;20409;-82
2022/11/08 07:35:57;;;;;;;1.77;0.60;;;12.00;97.00;;;;;;5080025;28;20435;-83
2022/11/08 07:38:24;;;;;;;3.93;0.77;;;11.90;96.60;;;;;;5078887;28;20440;-81
2022/11/08 07:40:50;;;;;;;1.57;1.00;;;12.20;96.10;;;;;;5097983;28;20422;-82
2022/11/08 07:43:16;;;;;;;1.73;0.70;;;12.10;96.20;;;;;;5081885;28;20455;-83
2022/11/08 07:45:42;;;;;;;2.80;0.70;;;12.30;95.40;;;;;;5100190;28;20409;-83
2022/11/08 07:48:10;;;;;;;1.00;0.90;;;12.10;95.70;;;;;;5082079;28;20209;-82
2022/11/08 07:50:36;;;;;;;0.83;0.67;;;12.30;95.50;;;;;;5065452;28;20460;-82
2022/11/08 07:53:02;;;;;;;1.00;0.80;;;12.40;95.30;;;;;;5081302;28;20430;-82
2022/11/08 07:55:27;;;;;;;2.17;0.70;;;12.40;95.20;;;;;;5063896;28;20275;-81
2022/11/08 07:58:00;;;;;;;0.90;0.60;;;12.50;94.60;;;;;;5064532;28;20694;-82
2022/11/08 08:00:26;;;;;;;1.10;0.80;;;12.70;94.40;;;;;;5099267;28;20201;-81
2022/11/08 08:02:57;;;;;;;3.47;2.50;;;12.80;93.40;;;;;;5081339;28;20444;-81
2022/11/08 08:05:22;;;;;;;1.03;0.90;;;13.00;95.50;;;;;;5081557;28;20418;-81
2022/11/08 08:07:48;;;;;;;1.10;0.80;;;13.00;94.60;;;;;;5099904;28;20440;-80
2022/11/08 08:10:14;;;;;;;1.17;0.80;;;13.20;93.80;;;;;;5048832;28;20733;-82
2022/11/08 08:12:39;;;;;;;1.53;1.00;;;13.20;92.10;;;;;;5048368;28;20183;-82
2022/11/08 08:15:05;;;;;;;1.40;1.07;;;13.40;91.10;;;;;;5065030;28;20186;-80
2022/11/08 08:17:31;;;;;;;1.50;0.90;;;13.60;90.80;;;;;;5047208;28;20275;-80
2022/11/08 08:19:57;;;;;;;0.80;0.60;;;13.90;88.40;;;;;;5047796;28;20533;-82
2022/11/08 08:22:22;;;;;;;2.73;1.30;;;14.30;88.60;;;;;;5064593;28;20186;-82
2022/11/08 08:24:48;;;;;;;2.13;1.40;;;15.10;90.60;;;;;;5079622;28;20225;-81
2022/11/08 08:27:14;;;;;;;3.30;3.00;;;16.20;89.60;;;;;;5060117;28;20198;-80
2022/11/08 08:29:40;;;;;;;2.90;2.30;;;17.30;82.40;;;;;;5076274;28;20202;-80
2022/11/08 08:32:05;;;;;;;1.77;1.63;;;18.50;75.20;;;;;;5059652;28;20504;-80
2022/11/08 08:34:31;;;;;;;1.80;1.53;;;19.30;71.60;;;;;;5075954;28;20209;-81
2022/11/08 08:36:56;;;;;;;3.80;1.57;;;18.60;69.00;;;;;;5075988;28;20188;-80
2022/11/08 08:39:22;;;;;;;1.80;1.30;;;18.70;71.00;;;;;;5075653;28;20236;-80
2022/11/08 08:41:48;;;;;;;3.83;2.30;;;19.80;70.80;;;;;;5058229;28;20240;-80
2022/11/08 08:44:13;;;;;;;2.20;1.53;;;20.80;72.70;;;;;;5074866;28;20671;-80
2022/11/08 08:46:39;;;;;;;1.33;0.83;;;21.30;69.40;;;;;;5075257;28;20188;-81
2022/11/08 08:49:04;;;;;;;2.13;1.10;;;21.10;61.60;;;;;;5041553;28;20301;-80
2022/11/08 08:51:30;;;;;;;1.47;1.27;;;21.10;60.90;;;;;;5093083;28;20240;-80
2022/11/08 08:53:57;;;;;;;8.03;4.80;;;21.50;63.80;;;;;;5074567;28;20187;-81
2022/11/08 08:56:22;;;;;;;9.07;4.83;;;21.90;66.70;;;;;;5056950;28;20750;-81
2022/11/08 08:58:48;;;;;;;5.73;4.07;;;21.60;66.30;;;;;;5073581;28;20453;-82
2022/11/08 09:01:15;;;;;;;8.77;4.67;;;20.80;67.80;;;;;;5057109;28;20181;-80
2022/11/08 09:03:40;;;;;;;7.93;5.43;;;19.60;70.20;;;;;;5073443;28;20195;-81
2022/11/08 09:06:06;;;;;;;6.10;4.47;;;18.60;74.10;;;;;;5091614;28;20409;-82
2022/11/08 09:08:32;;;;;;;2.60;1.90;;;18.00;76.60;;;;;;5072950;28;20210;-80
2022/11/08 09:10:59;;;;;;;2.03;1.23;;;17.80;70.70;;;;;;5055877;28;20720;-79
2022/11/08 09:13:26;;;;;;;1.67;0.90;;;17.90;67.90;;;;;;5091595;28;20185;-80
2022/11/08 09:15:52;;;;;;;1.20;0.63;;;17.30;68.60;;;;;;5072748;28;20433;-81
2022/11/08 09:18:19;;;;;;;1.93;0.90;;;17.30;68.80;;;;;;5073526;28;20464;-79
2022/11/08 09:20:46;;;;;;;3.20;0.60;;;17.30;65.90;;;;;;5073046;28;20416;-80
2022/11/08 09:23:13;;;;;;;0.90;0.73;;;17.20;64.60;;;;;;5076464;28;20487;-82
2022/11/08 09:25:39;;;;;;;1.50;1.20;;;16.90;65.40;;;;;;5098710;28;20409;-82
2022/11/08 09:28:05;;;;;;;1.27;0.97;;;16.60;65.70;;;;;;5061528;28;20453;-81
2022/11/08 09:30:31;;;;;;;1.00;0.80;;;16.80;65.80;;;;;;5095613;28;20469;-81
2022/11/08 09:32:56;;;;;;;1.63;1.17;;;17.30;64.40;;;;;;5061611;28;20491;-81
2022/11/08 09:35:22;;;;;;;1.50;0.77;;;17.40;64.80;;;;;;5077971;28;20963;-80
2022/11/08 09:37:48;;;;;;;2.07;1.20;;;17.30;64.10;;;;;;5096251;28;20643;-79
2022/11/08 09:40:17;;;;;;;7.23;4.90;;;18.10;64.50;;;;;;5077842;28;20424;-80
2022/11/08 09:42:58;;;;;;;1.30;1.20;;;17.50;64.40;;;;;;5076993;28;20185;-80
2022/11/08 09:45:45;;;;;;;2.20;1.90;;;17.50;64.20;;;;;;5094846;28;20481;-80
2022/11/08 09:48:43;;;;;;;1.97;0.97;;;17.30;66.20;;;;;;5075983;28;20447;-81
2022/11/08 09:51:14;;;;;;;1.50;0.70;;;16.90;65.90;;;;;;5070125;28;20473;-80
2022/11/08 09:53:53;;;;;;;2.87;0.93;;;17.30;66.40;;;;;;5075837;28;20766;-82
2022/11/08 09:56:36;;;;;;;1.07;0.80;;;17.80;65.50;;;;;;5077016;28;20418;-80
2022/11/08 09:59:11;;;;;;;2.37;0.90;;;18.50;67.20;;;;;;5076575;28;20486;-80
2022/11/08 10:01:37;;;;;;;5.77;0.90;;;19.30;64.80;;;;;;5075981;28;20960;-80
2022/11/08 10:04:24;;;;;;;1.57;0.83;;;19.50;62.70;;;;;;5075094;28;20461;-81
2022/11/08 10:07:12;;;;;;;2.23;1.13;;;20.40;63.50;;;;;;5076158;28;20866;-80
2022/11/08 10:10:26;;;;;;;2.20;0.97;;;21.00;61.40;;;;;;5075499;28;20467;-81
2022/11/08 10:13:03;;;;;;;1.40;0.80;;;22.20;61.10;;;;;;5050621;28;20430;-81
2022/11/08 10:15:48;;;;;;;1.27;0.90;;;22.90;57.80;;;;;;5050647;28;20504;-80
2022/11/08 10:18:35;;;;;;;4.80;1.83;;;22.70;54.40;;;;;;5065300;28;20486;-80
2022/11/08 10:21:36;;;;;;;1.10;0.80;;;21.90;56.50;;;;;;5075687;28;20413;-80
2022/11/08 10:24:21;;;;;;;1.67;0.90;;;21.90;54.70;;;;;;5094644;28;20432;-80
2022/11/08 10:26:50;;;;;;;3.00;1.33;;;22.40;53.30;;;;;;5075844;28;20413;-80
2022/11/08 10:29:21;;;;;;;4.70;3.57;;;21.50;53.00;;;;;;5092911;28;20470;-80
2022/11/08 10:32:00;;;;;;;11.00;4.70;;;21.00;64.70;;;;;;5075238;28;20725;-80
2022/11/08 10:34:33;;;;;;;6.80;4.60;;;19.80;71.30;;;;;;5074980;28;20947;-80
2022/11/08 10:37:04;;;;;;;5.23;3.60;;;19.50;74.50;;;;;;5092378;28;20408;-80
2022/11/08 10:39:43;;;;;;;6.30;4.50;;;19.10;76.60;;;;;;5077421;28;21270;-81
2022/11/08 10:42:36;;;;;;;6.43;4.07;;;18.60;80.40;;;;;;5094565;28;20401;-80
2022/11/08 10:45:01;;;;;;;5.60;3.80;;;18.30;84.50;;;;;;5074421;28;20495;-80
2022/11/08 10:47:30;;;;;;;9.03;4.13;;;18.30;86.30;;;;;;5060243;28;20430;-80
2022/11/08 10:49:56;;;;;;;7.17;4.40;;;18.30;87.40;;;;;;5078749;28;20220;-80
2022/11/08 10:52:38;;;;;;;4.73;3.97;;;18.30;89.80;;;;;;5064787;28;20417;-80
2022/11/08 10:55:21;;;;;;;7.33;4.43;;;18.00;91.60;;;;;;5061339;28;20194;-79
2022/11/08 10:57:46;;;;;;;8.17;3.90;;;17.70;93.40;;;;;;5094514;28;20490;-79
2022/11/08 11:00:22;;;;;;;4.70;3.40;;;17.60;94.30;;;;;;5060227;28;20460;-79
2022/11/08 11:02:53;;;;;;;4.40;3.50;;;17.50;94.30;;;;;;5096216;28;20198;-80
2022/11/08 11:05:27;;;;;;;3.57;3.17;;;17.50;94.40;;;;;;5061177;28;20477;-78
2022/11/08 11:08:12;;;;;;;5.10;3.27;;;17.30;93.10;;;;;;5073956;28;20459;-76
2022/11/08 11:10:46;;;;;;;7.43;4.47;;;17.00;93.60;;;;;;5091506;28;20489;-79
2022/11/08 11:13:26;;;;;;;4.97;2.97;;;16.70;95.00;;;;;;5073090;28;20901;-77
2022/11/08 11:15:55;;;;;;;4.80;4.07;;;16.30;95.70;;;;;;5073459;28;20428;-77
2022/11/08 11:18:25;;;;;;;5.87;3.53;;;16.20;97.00;;;;;;5073252;28;20967;-79
2022/11/08 11:21:07;;;;;;;3.43;3.07;;;16.10;97.00;;;;;;5091468;28;20411;-79
2022/11/08 11:23:39;;;;;;;3.30;2.60;;;16.00;97.90;;;;;;5073224;28;20431;-79
2022/11/08 11:26:06;;;;;;;5.27;3.57;;;16.00;97.10;;;;;;5072838;28;20414;-79
2022/11/08 11:28:34;;;;;;;4.30;2.70;;;15.90;98.20;;;;;;5091663;28;21182;-80
2022/11/08 11:31:15;;;;;;;3.93;2.57;;;15.70;98.80;;;;;;5056624;28;20476;-80
2022/11/08 11:33:45;;;;;;;6.27;3.00;;;15.60;99.50;;;;;;5076443;28;20412;-81
2022/11/08 11:36:17;;;;;;;2.70;2.37;;;15.40;99.70;;;;;;5082159;28;20434;-80
2022/11/08 11:38:43;;;;;;;5.40;2.77;;;15.40;99.90;;;;;;5095293;28;20433;-81
2022/11/08 11:41:15;;;;;;;5.47;3.10;;;15.30;99.90;;;;;;5076686;28;20799;-80
2022/11/08 11:43:47;;;;;;;8.63;3.97;;;15.30;99.90;;;;;;5075995;28;20183;-82
2022/11/08 11:46:19;;;;;;;4.77;3.10;;;15.30;99.90;;;;;;5076596;28;20514;-81
2022/11/08 11:48:49;;;;;;;5.83;3.30;;;15.20;99.90;;;;;;5093344;28;20463;-80
2022/11/08 11:51:15;;;;;;;5.67;3.37;;;15.30;99.90;;;;;;5075410;28;20476;-80
2022/11/08 11:53:41;;;;;;;4.30;3.10;;;15.40;99.90;;;;;;5076871;28;20430;-79
2022/11/08 11:56:36;;;;;;;4.87;3.63;;;15.40;99.90;;;;;;5076578;28;20278;-82
2022/11/08 11:59:26;;;;;;;8.03;3.57;;;15.50;99.90;;;;;;5093077;28;20200;-81
2022/11/08 12:02:21;;;;;;;4.20;3.40;;;15.80;99.90;;;;;;5093692;28;20485;-82
2022/11/08 12:05:07;;;;;;;3.47;2.73;;;16.10;99.90;;;;;;5074349;28;20418;-82
2022/11/08 12:07:42;;;;;;;3.90;3.17;;;16.50;99.90;;;;;;5092514;28;20462;-80
2022/11/08 12:10:25;;;;;;;5.20;3.20;;;16.50;99.90;;;;;;5074015;28;20525;-81
2022/11/08 12:12:57;;;;;;;3.87;2.97;;;16.50;99.90;;;;;;5074344;28;20410;-80
2022/11/08 12:15:48;;;;;;;6.13;4.70;;;16.40;99.90;;;;;;5092382;28;20404;-80
2022/11/08 12:18:38;;;;;;;7.27;3.53;;;16.50;99.90;;;;;;5091810;28;20425;-82
2022/11/08 12:21:21;;;;;;;9.80;4.70;;;16.50;99.90;;;;;;5092179;28;20827;-81
2022/11/08 12:23:57;;;;;;;6.33;4.00;;;16.60;99.90;;;;;;5073648;28;20595;-79
2022/11/08 12:26:52;;;;;;;7.90;4.20;;;16.70;99.60;;;;;;5091985;28;20836;-81
2022/11/08 12:29:41;;;;;;;4.40;2.60;;;16.80;99.90;;;;;;5072958;28;20546;-79
2022/11/08 12:32:19;;;;;;;4.40;3.90;;;16.80;99.90;;;;;;5073444;28;20426;-80
2022/11/08 12:35:04;;;;;;;5.97;3.70;;;16.70;99.90;;;;;;5073141;28;20416;-80
2022/11/08 12:37:44;;;;;;;5.07;3.33;;;16.80;99.90;;;;;;5072944;28;20460;-80
2022/11/08 12:40:27;;;;;;;3.83;3.30;;;16.80;99.80;;;;;;5091088;28;20422;-81
2022/11/08 12:43:16;;;;;;;6.80;3.30;;;16.80;99.70;;;;;;5091361;28;20411;-81
2022/11/08 12:45:50;;;;;;;5.80;3.00;;;16.90;99.90;;;;;;5072813;28;20535;-81
2022/11/08 12:48:27;;;;;;;5.30;2.73;;;16.80;99.60;;;;;;5072603;28;20533;-81
2022/11/08 12:51:18;;;;;;;6.43;3.23;;;17.10;99.90;;;;;;5072703;28;20557;-81
2022/11/08 12:54:07;;;;;;;9.40;3.73;;;17.40;99.00;;;;;;5072887;28;20435;-80
2022/11/08 12:56:40;;;;;;;6.70;3.60;;;17.30;97.90;;;;;;5090668;28;20401;-81
2022/11/08 12:59:14;;;;;;;4.03;2.73;;;17.30;98.00;;;;;;5072047;28;20439;-81
2022/11/08 13:01:40;;;;;;;3.80;2.70;;;17.30;97.60;;;;;;5078164;28;20444;-81
2022/11/08 13:04:31;;;;;;;3.73;3.10;;;17.30;98.50;;;;;;5080222;28;20476;-82
2022/11/08 13:07:01;;;;;;;3.00;2.50;;;17.30;98.90;;;;;;5098844;28;20688;-83
2022/11/08 13:09:35;;;;;;;4.10;3.17;;;17.30;98.70;;;;;;5079960;28;20491;-83
2022/11/08 13:12:05;;;;;;;5.77;3.23;;;17.80;97.50;;;;;;5080414;28;20430;-83
2022/11/08 13:14:31;;;;;;;3.33;3.03;;;17.70;97.60;;;;;;5098209;28;20405;-83
2022/11/08 13:17:25;;;;;;;8.73;3.20;;;17.80;97.70;;;;;;5063804;28;20477;-82
2022/11/08 13:19:50;;;;;;;6.30;2.60;;;17.90;97.20;;;;;;5079691;28;20456;-82
2022/11/08 13:22:28;;;;;;;7.27;2.80;;;17.90;98.00;;;;;;5098014;28;20419;-83
2022/11/08 13:24:55;;;;;;;5.53;2.93;;;17.90;98.30;;;;;;5076153;28;20223;-83